createdAt,value
2022-10-11T00:02:43.117Z,60
2022-10-11T00:17:44.937Z,50
2022-10-11T00:32:46.773Z,20
2022-10-11T00:47:48.598Z,10
2022-10-11T01:02:50.454Z,10
2022-10-11T01:17:52.266Z,0
2022-10-11T01:32:54.077Z,0
2022-10-11T01:47:55.919Z,0
2022-10-11T02:02:57.795Z,0
2022-10-11T02:17:59.623Z,0
2022-10-11T02:33:01.449Z,0
2022-10-11T02:48:03.303Z,0
2022-10-11T03:03:05.164Z,0
2022-10-11T03:18:07.000Z,0
2022-10-11T03:33:08.859Z,0
2022-10-11T03:48:10.693Z,0
2022-10-11T04:03:12.529Z,0
2022-10-11T04:18:14.375Z,0
2022-10-11T04:33:16.221Z,0
2022-10-11T04:48:18.051Z,0
2022-10-11T05:03:19.867Z,0
2022-10-11T05:18:21.718Z,0
2022-10-11T05:33:23.546Z,0
2022-10-11T05:48:25.404Z,0
2022-10-11T06:03:27.253Z,0
2022-10-11T06:18:29.075Z,0
2022-10-11T06:33:30.889Z,0
2022-10-11T06:48:32.744Z,0
2022-10-11T07:03:34.602Z,0
2022-10-11T07:18:36.430Z,0
2022-10-11T07:33:38.276Z,0
2022-10-11T07:48:40.085Z,0
2022-10-11T08:03:41.889Z,0
2022-10-11T08:18:43.720Z,0
2022-10-11T08:33:45.551Z,0
2022-10-11T08:48:47.371Z,0
2022-10-11T09:03:49.147Z,0
2022-10-11T09:18:51.004Z,0
2022-10-11T09:33:52.847Z,0
2022-10-11T09:48:54.690Z,0
2022-10-11T10:03:56.554Z,0
2022-10-11T10:18:58.381Z,0
2022-10-11T10:34:00.205Z,0
2022-10-11T10:49:28.735Z,0
2022-10-11T11:04:43.338Z,0
2022-10-11T11:19:45.169Z,0
2022-10-11T11:34:47.017Z,0
2022-10-11T11:49:48.843Z,0
2022-10-11T12:04:50.738Z,0
2022-10-11T12:19:52.628Z,0
2022-10-11T12:34:54.474Z,0
2022-10-11T12:49:56.320Z,0
2022-10-11T13:04:58.173Z,0
2022-10-11T13:19:59.997Z,0
2022-10-11T13:35:01.856Z,0
2022-10-11T13:50:03.720Z,0
2022-10-11T14:05:05.559Z,0
2022-10-11T14:20:10.960Z,10
2022-10-11T14:35:13.343Z,20
2022-10-11T14:50:15.196Z,30
2022-10-11T15:05:17.028Z,40
2022-10-11T15:20:18.859Z,50
2022-10-11T15:35:20.684Z,50
2022-10-11T15:50:22.501Z,50
2022-10-11T16:05:24.341Z,60
2022-10-11T16:20:26.190Z,60
2022-10-11T16:35:32.369Z,60
2022-10-11T16:50:39.080Z,60
2022-10-11T17:05:41.287Z,60
2022-10-11T17:20:43.106Z,60
2022-10-11T17:35:44.950Z,70
2022-10-11T17:50:50.525Z,70
2022-10-11T18:05:52.650Z,70
2022-10-11T18:20:54.466Z,70
2022-10-11T18:35:56.308Z,80
2022-10-11T18:50:58.138Z,80
2022-10-11T19:05:59.992Z,80
2022-10-11T19:21:01.849Z,80
2022-10-11T19:36:03.683Z,80
2022-10-11T19:51:05.528Z,80
2022-10-11T20:06:07.363Z,80
2022-10-11T20:21:09.213Z,80
2022-10-11T20:36:11.029Z,80
2022-10-11T20:51:12.883Z,80
2022-10-11T21:06:14.698Z,70
2022-10-11T21:21:16.525Z,70
2022-10-11T21:36:18.368Z,70
2022-10-11T21:51:20.220Z,80
2022-10-11T22:06:22.065Z,70
2022-10-11T22:21:23.889Z,60
2022-10-11T22:36:25.754Z,80
2022-10-11T22:51:27.587Z,50
2022-10-11T23:06:29.440Z,50
2022-10-11T23:21:31.292Z,50
2022-10-11T23:36:33.124Z,60
2022-10-11T23:51:34.945Z,60
